| time (UTC) | temp F | wind direction | speed MPH | gust MPH | rain 1hr in | rain 24hr in | rain mn in | humidity % | barometer mb |
| 20260506145006 | 76 | 249 | 12.0 | 21.0 | 0.00 | 0.00 | 0.00 | 44 | 1004.3 |
| 20260506143503 | 76 | 259 | 12.0 | 25.0 | 0.00 | 0.00 | 0.00 | 44 | 1004.3 |
| 20260506143001 | 76 | 214 | 9.0 | 23.0 | 0.00 | 0.00 | 0.00 | 45 | 1004.2 |
| 20260506142501 | 76 | 207 | 9.0 | 27.0 | 0.00 | 0.00 | 0.00 | 45 | 1004.3 |
| 20260506142003 | 75 | 257 | 12.0 | 27.0 | 0.00 | 0.00 | 0.00 | 46 | 1004.3 |
| 20260506141500 | 75 | 231 | 11.0 | 26.0 | 0.00 | 0.00 | 0.00 | 46 | 1004.3 |
| 20260506141100 | 76 | 206 | 12.0 | 27.0 | 0.00 | 0.00 | 0.00 | 45 | 1004.3 |
| 20260506140600 | 75 | 259 | 10.0 | 26.0 | 0.00 | 0.00 | 0.00 | 46 | 1004.4 |
| 20260506140104 | 75 | 268 | 17.0 | 26.0 | 0.00 | 0.00 | 0.00 | 45 | 1004.4 |
| 20260506135559 | 75 | 207 | 14.0 | 28.0 | 0.00 | 0.00 | 0.00 | 46 | 1004.5 |
| 20260506135059 | 74 | 257 | 17.0 | 31.0 | 0.00 | 0.00 | 0.00 | 47 | 1004.4 |
| 20260506134600 | 74 | 244 | 12.0 | 23.0 | 0.00 | 0.00 | 0.00 | 49 | 1004.3 |
| 20260506134059 | 74 | 232 | 8.0 | 30.0 | 0.00 | 0.00 | 0.00 | 49 | 1004.3 |
| 20260506133558 | 75 | 198 | 15.0 | 30.0 | 0.00 | 0.00 | 0.00 | 47 | 1004.4 |
| 20260506133058 | 76 | 236 | 12.0 | 30.0 | 0.00 | 0.00 | 0.00 | 47 | 1004.4 |
| 20260506132557 | 74 | 202 | 10.0 | 34.0 | 0.00 | 0.00 | 0.00 | 50 | 1004.3 |
| 20260506132102 | 75 | 210 | 18.0 | 34.0 | 0.00 | 0.00 | 0.00 | 48 | 1004.3 |
| 20260506131100 | 76 | 248 | 13.0 | 38.0 | 0.00 | 0.00 | 0.00 | 48 | 1004.3 |
| 20260506130556 | 75 | 276 | 12.0 | 29.0 | 0.00 | 0.00 | 0.00 | 48 | 1004.3 |
| 20260506130057 | 75 | 250 | 12.0 | 29.0 | 0.00 | 0.00 | 0.00 | 49 | 1004.3 |
| 20260506125554 | 74 | 265 | 11.0 | 27.0 | 0.00 | 0.00 | 0.00 | 51 | 1004.4 |
| 20260506125054 | 73 | 243 | 12.0 | 22.0 | 0.00 | 0.00 | 0.00 | 51 | 1004.4 |
| 20260506124554 | 73 | 225 | 11.0 | 26.0 | 0.00 | 0.00 | 0.00 | 52 | 1004.4 |
| 20260506124054 | 73 | 211 | 13.0 | 26.0 | 0.00 | 0.00 | 0.00 | 51 | 1004.3 |
| 20260506123554 | 74 | 149 | 9.0 | 26.0 | 0.00 | 0.00 | 0.00 | 51 | 1004.4 |
| 20260506123055 | 73 | 257 | 13.0 | 28.0 | 0.00 | 0.00 | 0.00 | 51 | 1004.5 |
| 20260506122553 | 73 | 233 | 16.0 | 26.0 | 0.00 | 0.00 | 0.00 | 51 | 1004.5 |
| 20260506122052 | 74 | 227 | 10.0 | 26.0 | 0.00 | 0.00 | 0.00 | 52 | 1004.4 |
| 20260506121557 | 73 | 202 | 12.0 | 25.0 | 0.00 | 0.00 | 0.00 | 53 | 1004.4 |
| 20260506121053 | 73 | 274 | 13.0 | 31.0 | 0.00 | 0.00 | 0.00 | 53 | 1004.5 |
| 20260506120552 | 74 | 222 | 17.0 | 31.0 | 0.00 | 0.00 | 0.00 | 51 | 1004.4 |
| 20260506120053 | 74 | 254 | 8.0 | 22.0 | 0.00 | 0.00 | 0.00 | 54 | 1004.3 |
| 20260506115549 | 73 | 227 | 12.0 | 28.0 | 0.00 | 0.00 | 0.00 | 54 | 1004.4 |
| 20260506115048 | 73 | 231 | 10.0 | 32.0 | 0.00 | 0.00 | 0.00 | 54 | 1004.4 |
| 20260506114553 | 72 | 203 | 10.0 | 32.0 | 0.00 | 0.00 | 0.00 | 56 | 1004.5 |
| 20260506114048 | 72 | 277 | 13.0 | 27.0 | 0.00 | 0.00 | 0.00 | 56 | 1004.5 |
| 20260506113547 | 72 | 270 | 10.0 | 32.0 | 0.00 | 0.00 | 0.00 | 56 | 1004.5 |
| 20260506113046 | 72 | 270 | 17.0 | 32.0 | 0.00 | 0.00 | 0.00 | 55 | 1004.5 |
| 20260506112549 | 72 | 209 | 11.0 | 27.0 | 0.00 | 0.00 | 0.00 | 55 | 1004.5 |
| 20260506112045 | 73 | 254 | 10.0 | 29.0 | 0.00 | 0.00 | 0.00 | 56 | 1004.4 |
| 20260506111547 | 72 | 262 | 12.0 | 26.0 | 0.00 | 0.00 | 0.00 | 55 | 1004.4 |
| 20260506111048 | 72 | 250 | 9.0 | 21.0 | 0.00 | 0.00 | 0.00 | 56 | 1004.4 |
| 20260506110544 | 72 | 218 | 14.0 | 25.0 | 0.00 | 0.00 | 0.00 | 55 | 1004.5 |
| 20260506110043 | 72 | 252 | 13.0 | 27.0 | 0.00 | 0.00 | 0.00 | 56 | 1004.4 |
| 20260506105543 | 72 | 260 | 12.0 | 27.0 | 0.00 | 0.00 | 0.00 | 55 | 1004.5 |
| 20260506105043 | 72 | 276 | 10.0 | 26.0 | 0.00 | 0.00 | 0.00 | 54 | 1004.4 |
| 20260506104545 | 72 | 277 | 13.0 | 26.0 | 0.00 | 0.00 | 0.00 | 54 | 1004.4 |
| 20260506104043 | 71 | 249 | 6.0 | 17.0 | 0.00 | 0.00 | 0.00 | 56 | 1004.3 |
| 20260506103541 | 71 | 277 | 8.0 | 24.0 | 0.00 | 0.00 | 0.00 | 58 | 1004.4 |
| 20260506103041 | 71 | 251 | 12.0 | 24.0 | 0.00 | 0.00 | 0.00 | 57 | 1004.4 |
| 20260506102541 | 71 | 216 | 11.0 | 30.0 | 0.00 | 0.00 | 0.00 | 56 | 1004.4 |
| 20260506102041 | 71 | 213 | 14.0 | 30.0 | 0.00 | 0.00 | 0.00 | 55 | 1004.4 |
| 20260506101544 | 72 | 220 | 15.0 | 24.0 | 0.00 | 0.00 | 0.00 | 54 | 1004.3 |
| 20260506101140 | 72 | 198 | 9.0 | 27.0 | 0.00 | 0.00 | 0.00 | 55 | 1004.2 |
| 20260506100540 | 71 | 221 | 10.0 | 29.0 | 0.00 | 0.00 | 0.00 | 55 | 1004.2 |
| 20260506100046 | 71 | 205 | 11.0 | 29.0 | 0.00 | 0.00 | 0.00 | 55 | 1004.2 |
| 20260506095541 | 72 | 212 | 10.0 | 23.0 | 0.00 | 0.00 | 0.00 | 55 | 1004.3 |
| 20260506095040 | 70 | 247 | 12.0 | 23.0 | 0.00 | 0.00 | 0.00 | 57 | 1004.3 |
| 20260506094539 | 70 | 267 | 12.0 | 27.0 | 0.00 | 0.00 | 0.00 | 56 | 1004.1 |
| 20260506094038 | 70 | 219 | 11.0 | 27.0 | 0.00 | 0.00 | 0.00 | 56 | 1004.2 |
| 20260506093539 | 71 | 257 | 15.0 | 29.0 | 0.00 | 0.00 | 0.00 | 55 | 1004.2 |
| 20260506093037 | 72 | 192 | 12.0 | 24.0 | 0.00 | 0.00 | 0.00 | 55 | 1004.2 |
| 20260506092536 | 71 | 244 | 10.0 | 26.0 | 0.00 | 0.00 | 0.00 | 57 | 1004.0 |
| 20260506092040 | 71 | 249 | 14.0 | 31.0 | 0.00 | 0.00 | 0.00 | 56 | 1004.1 |
| 20260506091534 | 70 | 284 | 12.0 | 29.0 | 0.00 | 0.00 | 0.00 | 58 | 1004.0 |
| 20260506091034 | 70 | 250 | 14.0 | 25.0 | 0.00 | 0.00 | 0.00 | 59 | 1004.0 |
| 20260506090532 | 70 | 294 | 12.0 | 31.0 | 0.00 | 0.00 | 0.00 | 58 | 1003.9 |
| 20260506090033 | 71 | 261 | 13.0 | 31.0 | 0.00 | 0.00 | 0.00 | 57 | 1004.0 |
| 20260506085531 | 70 | 198 | 10.0 | 25.0 | 0.00 | 0.00 | 0.00 | 59 | 1004.0 |
| 20260506085030 | 69 | 215 | 11.0 | 24.0 | 0.00 | 0.00 | 0.00 | 60 | 1003.9 |
| 20260506084534 | 69 | 202 | 14.0 | 24.0 | 0.00 | 0.00 | 0.00 | 59 | 1004.0 |
| 20260506084030 | 69 | 206 | 15.0 | 28.0 | 0.00 | 0.00 | 0.00 | 59 | 1004.0 |
| 20260506083530 | 69 | 229 | 12.0 | 31.0 | 0.00 | 0.00 | 0.00 | 58 | 1004.0 |
| 20260506083029 | 69 | 217 | 13.0 | 31.0 | 0.00 | 0.00 | 0.00 | 60 | 1004.0 |
| 20260506082528 | 69 | 204 | 16.0 | 24.0 | 0.00 | 0.00 | 0.00 | 59 | 1004.0 |
| 20260506082027 | 69 | 300 | 12.0 | 29.0 | 0.00 | 0.00 | 0.00 | 60 | 1003.9 |
| 20260506081528 | 69 | 210 | 12.0 | 28.0 | 0.00 | 0.00 | 0.00 | 60 | 1003.9 |
| 20260506081027 | 69 | 216 | 9.0 | 28.0 | 0.00 | 0.00 | 0.00 | 61 | 1003.8 |
| 20260506080626 | 68 | 221 | 17.0 | 28.0 | 0.00 | 0.00 | 0.00 | 61 | 1003.8 |
| 20260506073521 | 66 | 246 | 10.0 | 29.0 | 0.00 | 0.00 | 0.00 | 64 | 1003.8 |
| 20260506073021 | 66 | 199 | 16.0 | 29.0 | 0.00 | 0.00 | 0.00 | 63 | 1003.7 |
| 20260506072521 | 66 | 210 | 16.0 | 31.0 | 0.00 | 0.00 | 0.00 | 62 | 1003.7 |
| 20260506072020 | 67 | 219 | 8.0 | 25.0 | 0.00 | 0.00 | 0.00 | 63 | 1003.7 |
| 20260506071518 | 66 | 195 | 14.0 | 25.0 | 0.00 | 0.00 | 0.00 | 63 | 1003.6 |
| 20260506071017 | 66 | 242 | 15.0 | 23.0 | 0.00 | 0.00 | 0.00 | 63 | 1003.5 |
| 20260506070515 | 65 | 211 | 8.0 | 25.0 | 0.00 | 0.00 | 0.00 | 65 | 1003.3 |
| 20260506062509 | 63 | 226 | 11.0 | 22.0 | 0.00 | 0.00 | 0.00 | 66 | 1003.3 |
| 20260506062008 | 63 | 190 | 7.0 | 21.0 | 0.00 | 0.00 | 0.00 | 66 | 1003.4 |
| 20260506061508 | 63 | 176 | 8.0 | 21.0 | 0.00 | 0.00 | 0.00 | 67 | 1003.4 |
| 20260506061011 | 63 | 199 | 9.0 | 20.0 | 0.00 | 0.00 | 0.00 | 66 | 1003.4 |
| 20260506060508 | 63 | 183 | 7.0 | 21.0 | 0.00 | 0.00 | 0.00 | 66 | 1003.3 |
| 20260506051100 | 61 | 166 | 7.0 | 16.0 | 0.00 | 0.00 | 0.00 | 69 | 1003.4 |
| 20260506050556 | 61 | 186 | 8.0 | 16.0 | 0.00 | 0.00 | 0.00 | 69 | 1003.5 |
| 20260506045051 | 60 | 205 | 6.0 | 14.0 | 0.00 | 0.00 | 0.00 | 71 | 1003.6 |
| 20260506044550 | 60 | 201 | 3.0 | 14.0 | 0.00 | 0.00 | 0.00 | 72 | 1003.7 |
| 20260506044047 | 59 | 172 | 9.0 | 15.0 | 0.00 | 0.00 | 0.00 | 74 | 1003.7 |
| 20260506043546 | 58 | 157 | 7.0 | 15.0 | 0.00 | 0.00 | 0.00 | 77 | 1003.6 |
| 20260506043045 | 57 | 163 | 4.0 | 10.0 | 0.00 | 0.00 | 0.00 | 81 | 1003.7 |
| 20260506042544 | 57 | 169 | 3.0 | 9.0 | 0.00 | 0.00 | 0.00 | 85 | 1003.6 |
| 20260506042045 | 56 | 195 | 2.0 | 10.0 | 0.00 | 0.00 | 0.00 | 88 | 1003.7 |
| 20260506041542 | 55 | 146 | 0.0 | 9.0 | 0.00 | 0.00 | 0.00 | 90 | 1003.7 |
| 20260506041039 | 54 | 161 | 2.0 | 9.0 | 0.00 | 0.00 | 0.00 | 91 | 1003.7 |
| 20260506040538 | 54 | 152 | 1.0 | 5.0 | 0.00 | 0.00 | 0.00 | 92 | 1003.7 |
| 20260506040037 | 54 | 123 | 0.0 | 2.0 | 0.00 | 0.00 | 0.00 | 92 | 1003.7 |
| 20260506035637 | 53 | 73 | 0.0 | 2.0 | 0.00 | 0.00 | 0.00 | 92 | 1003.8 |
| 20260506035036 | 53 | 73 | 0.0 | 0.0 | 0.00 | 0.00 | 0.00 | 92 | 1003.8 |
| 20260506034539 | 53 | 73 | 0.0 | 0.0 | 0.00 | 0.00 | 0.00 | 92 | 1003.8 |
| 20260506034034 | 53 | 73 | 0.0 | 0.0 | 0.00 | 0.00 | 0.00 | 92 | 1003.7 |
| 20260506033534 | 53 | 73 | 0.0 | 0.0 | 0.00 | 0.00 | 0.00 | 92 | 1003.8 |
| 20260506033037 | 53 | 73 | 0.0 | 0.0 | 0.00 | 0.00 | 0.00 | 92 | 1003.8 |
| 20260506032532 | 53 | 73 | 0.0 | 0.0 | 0.00 | 0.00 | 0.00 | 92 | 1003.9 |
| 20260506032032 | 53 | 73 | 0.0 | 0.0 | 0.00 | 0.00 | 0.00 | 92 | 1003.9 |
| 20260506031535 | 53 | 73 | 0.0 | 0.0 | 0.00 | 0.00 | 0.00 | 92 | 1003.9 |
| 20260506031031 | 53 | 73 | 0.0 | 0.0 | 0.00 | 0.00 | 0.00 | 92 | 1003.9 |
| 20260506030532 | 53 | 73 | 0.0 | 0.0 | 0.00 | 0.00 | 0.00 | 92 | 1004.0 |
| 20260506030053 | 53 | 73 | 0.0 | 0.0 | 0.00 | 0.00 | 0.00 | 92 | 1004.0 |
| 20260506025530 | 53 | 73 | 0.0 | 0.0 | 0.00 | 0.00 | 0.00 | 92 | 1004.0 |
| 20260506025033 | 53 | 73 | 0.0 | 0.0 | 0.00 | 0.00 | 0.00 | 92 | 1003.9 |
| 20260506024532 | 53 | 73 | 0.0 | 0.0 | 0.00 | 0.00 | 0.00 | 92 | 1004.0 |
| 20260506024031 | 53 | 73 | 0.0 | 0.0 | 0.00 | 0.00 | 0.00 | 92 | 1004.0 |
| 20260506023529 | 53 | 73 | 0.0 | 4.0 | 0.00 | 0.00 | 0.00 | 91 | 1004.0 |
| 20260506023028 | 53 | 73 | 0.0 | 4.0 | 0.00 | 0.00 | 0.00 | 91 | 1004.0 |
| 20260506022529 | 53 | 53 | 0.0 | 0.0 | 0.00 | 0.00 | 0.00 | 91 | 1004.1 |
| 20260506022028 | 53 | 53 | 0.0 | 0.0 | 0.00 | 0.00 | 0.00 | 91 | 1004.1 |
| 20260506021527 | 53 | 53 | 0.0 | 0.0 | 0.00 | 0.00 | 0.00 | 91 | 1004.1 |
| 20260506021029 | 54 | 53 | 0.0 | 0.0 | 0.00 | 0.00 | 0.00 | 91 | 1004.1 |
| 20260506020529 | 54 | 53 | 0.0 | 0.0 | 0.00 | 0.00 | 0.00 | 91 | 1004.1 |
| 20260506020026 | 54 | 53 | 0.0 | 0.0 | 0.00 | 0.00 | 0.00 | 91 | 1004.1 |
| 20260506015525 | 54 | 53 | 0.0 | 0.0 | 0.00 | 0.00 | 0.00 | 91 | 1004.2 |
| 20260506014525 | 54 | 53 | 0.0 | 0.0 | 0.00 | 0.00 | 0.00 | 91 | 1004.2 |
| 20260506014023 | 54 | 53 | 0.0 | 0.0 | 0.00 | 0.00 | 0.00 | 90 | 1004.2 |
| 20260506013524 | 54 | 53 | 0.0 | 0.0 | 0.00 | 0.00 | 0.00 | 90 | 1004.2 |
| 20260506013022 | 55 | 53 | 0.0 | 0.0 | 0.00 | 0.00 | 0.00 | 91 | 1004.1 |
| 20260506012522 | 55 | 53 | 0.0 | 0.0 | 0.00 | 0.00 | 0.00 | 90 | 1004.1 |
| 20260506012020 | 55 | 53 | 0.0 | 1.0 | 0.00 | 0.00 | 0.00 | 90 | 1004.2 |
| 20260506011529 | 55 | 53 | 0.0 | 4.0 | 0.00 | 0.00 | 0.00 | 90 | 1004.2 |
| 20260506011022 | 55 | 53 | 1.0 | 4.0 | 0.00 | 0.00 | 0.00 | 90 | 1004.2 |
| 20260506010518 | 55 | 123 | 0.0 | 0.0 | 0.00 | 0.00 | 0.00 | 90 | 1004.3 |
| 20260506010019 | 55 | 123 | 0.0 | 0.0 | 0.00 | 0.00 | 0.00 | 90 | 1004.3 |
| 20260506005517 | 55 | 123 | 0.0 | 6.0 | 0.00 | 0.00 | 0.00 | 90 | 1004.4 |
| 20260506005017 | 56 | 93 | 0.0 | 6.0 | 0.00 | 0.00 | 0.00 | 90 | 1004.4 |
| 20260506004532 | 55 | 84 | 0.0 | 6.0 | 0.00 | 0.00 | 0.00 | 90 | 1004.4 |
| 20260506004017 | 55 | 83 | 0.0 | 6.0 | 0.00 | 0.00 | 0.00 | 90 | 1004.3 |
| 20260506003517 | 55 | 65 | 0.0 | 0.0 | 0.00 | 0.00 | 0.00 | 89 | 1004.3 |
| 20260506003022 | 56 | 65 | 0.0 | 2.0 | 0.00 | 0.00 | 0.00 | 89 | 1004.4 |
| 20260506002516 | 56 | 65 | 0.0 | 2.0 | 0.00 | 0.00 | 0.00 | 89 | 1004.4 |
| 20260506002019 | 56 | 65 | 0.0 | 2.0 | 0.00 | 0.00 | 0.00 | 89 | 1004.4 |
| 20260506001515 | 56 | 65 | 0.0 | 2.0 | 0.00 | 0.00 | 0.00 | 89 | 1004.4 |
| 20260506001014 | 56 | 53 | 0.0 | 2.0 | 0.00 | 0.00 | 0.00 | 88 | 1004.4 |
| 20260506000516 | 56 | 47 | 0.0 | 3.0 | 0.00 | 0.00 | 0.00 | 88 | 1004.5 |
| 20260506000017 | 56 | 47 | 0.0 | 3.0 | 0.00 | 0.00 | 0.00 | 88 | 1004.5 |
| 20260505235511 | 56 | 62 | 0.0 | 5.0 | 0.00 | 0.00 | 0.00 | 88 | 1004.5 |
| 20260505235013 | 56 | 62 | 0.0 | 6.0 | 0.00 | 0.00 | 0.00 | 88 | 1004.5 |
| 20260505234009 | 57 | 67 | 0.0 | 3.0 | 0.00 | 0.00 | 0.00 | 87 | 1004.6 |
| 20260505233512 | 57 | 68 | 0.0 | 3.0 | 0.00 | 0.00 | 0.00 | 87 | 1004.6 |
| 20260505233009 | 57 | 50 | 0.0 | 2.0 | 0.00 | 0.00 | 0.00 | 87 | 1004.6 |
| 20260505232510 | 57 | 34 | 0.0 | 5.0 | 0.00 | 0.00 | 0.00 | 87 | 1004.7 |
| 20260505232007 | 57 | 65 | 0.0 | 0.0 | 0.00 | 0.00 | 0.00 | 87 | 1004.7 |
| 20260505231507 | 57 | 61 | 0.0 | 1.0 | 0.00 | 0.00 | 0.00 | 86 | 1004.9 |
| 20260505231010 | 57 | 54 | 0.0 | 2.0 | 0.00 | 0.00 | 0.00 | 86 | 1004.9 |
| 20260505230505 | 58 | 70 | 0.0 | 2.0 | 0.00 | 0.00 | 0.00 | 86 | 1004.9 |
| 20260505230004 | 58 | 37 | 0.0 | 6.0 | 0.00 | 0.00 | 0.00 | 86 | 1004.9 |
| 20260505225504 | 58 | 37 | 1.0 | 6.0 | 0.00 | 0.00 | 0.00 | 85 | 1005.0 |
| 20260505225003 | 58 | 52 | 0.0 | 4.0 | 0.00 | 0.00 | 0.00 | 85 | 1004.9 |
| 20260505224503 | 58 | 51 | 0.0 | 9.0 | 0.00 | 0.00 | 0.00 | 85 | 1004.9 |
| 20260505224002 | 58 | 355 | 1.0 | 13.0 | 0.00 | 0.00 | 0.00 | 85 | 1004.8 |
| 20260505223502 | 58 | 68 | 3.0 | 13.0 | 0.00 | 0.00 | 0.00 | 85 | 1004.8 |
| 20260505223102 | 58 | 28 | 3.0 | 12.0 | 0.00 | 0.00 | 0.00 | 85 | 1004.8 |
| 20260505222600 | 59 | 53 | 0.0 | 9.0 | 0.00 | 0.00 | 0.00 | 84 | 1004.7 |
| 20260505222059 | 59 | 70 | 1.0 | 11.0 | 0.00 | 0.00 | 0.00 | 84 | 1004.7 |
| 20260505221604 | 59 | 22 | 2.0 | 9.0 | 0.00 | 0.00 | 0.00 | 84 | 1004.7 |
| 20260505221158 | 59 | 20 | 0.0 | 9.0 | 0.00 | 0.00 | 0.00 | 84 | 1004.7 |
| 20260505220557 | 59 | 17 | 0.0 | 9.0 | 0.00 | 0.00 | 0.00 | 83 | 1004.7 |
| 20260505220056 | 59 | 5 | 0.0 | 5.0 | 0.00 | 0.00 | 0.00 | 83 | 1004.8 |
| 20260505215556 | 59 | 40 | 0.0 | 12.0 | 0.00 | 0.00 | 0.00 | 83 | 1004.9 |
| 20260505215055 | 60 | 26 | 2.0 | 17.0 | 0.00 | 0.00 | 0.00 | 82 | 1004.9 |
| 20260505214559 | 60 | 5 | 4.0 | 17.0 | 0.00 | 0.00 | 0.00 | 82 | 1004.9 |
| 20260505213555 | 60 | 42 | 1.0 | 13.0 | 0.00 | 0.00 | 0.00 | 81 | 1004.9 |
| 20260505213057 | 60 | 51 | 2.0 | 13.0 | 0.00 | 0.00 | 0.00 | 81 | 1004.9 |
| 20260505212557 | 60 | 26 | 0.0 | 15.0 | 0.00 | 0.00 | 0.00 | 81 | 1004.9 |
| 20260505212054 | 61 | 45 | 1.0 | 15.0 | 0.00 | 0.00 | 0.00 | 80 | 1004.9 |
| 20260505211554 | 61 | 15 | 3.0 | 17.0 | 0.00 | 0.00 | 0.00 | 80 | 1004.9 |
| 20260505211054 | 61 | 22 | 5.0 | 17.0 | 0.00 | 0.00 | 0.00 | 80 | 1004.8 |
| 20260505210555 | 61 | 24 | 4.0 | 12.0 | 0.00 | 0.00 | 0.00 | 79 | 1005.0 |
| 20260505210053 | 62 | 275 | 3.0 | 22.0 | 0.00 | 0.00 | 0.00 | 79 | 1005.1 |
| 20260505205554 | 62 | 5 | 11.0 | 22.0 | 0.00 | 0.00 | 0.00 | 79 | 1004.9 |
| 20260505205057 | 62 | 13 | 4.0 | 13.0 | 0.00 | 0.00 | 0.00 | 79 | 1005.1 |
| 20260505204553 | 62 | 296 | 7.0 | 22.0 | 0.00 | 0.00 | 0.00 | 78 | 1005.0 |
| 20260505204053 | 63 | 40 | 7.0 | 22.0 | 0.00 | 0.00 | 0.00 | 77 | 1004.8 |
| 20260505203556 | 63 | 331 | 4.0 | 13.0 | 0.00 | 0.00 | 0.00 | 77 | 1004.9 |
| 20260505203056 | 63 | 34 | 8.0 | 13.0 | 0.00 | 0.00 | 0.00 | 76 | 1004.9 |
| 20260505202553 | 64 | 13 | 7.0 | 13.0 | 0.00 | 0.00 | 0.00 | 76 | 1004.9 |
| 20260505202052 | 64 | 355 | 0.0 | 14.0 | 0.00 | 0.00 | 0.00 | 75 | 1004.9 |
| 20260505201553 | 64 | 9 | 3.0 | 14.0 | 0.00 | 0.00 | 0.00 | 75 | 1004.9 |
| 20260505201052 | 64 | 39 | 4.0 | 14.0 | 0.00 | 0.00 | 0.00 | 75 | 1004.9 |
| 20260505200552 | 64 | 28 | 3.0 | 23.0 | 0.00 | 0.00 | 0.00 | 74 | 1004.9 |
| 20260505200052 | 65 | 345 | 5.0 | 23.0 | 0.00 | 0.00 | 0.00 | 74 | 1004.9 |
| 20260505195550 | 65 | 21 | 10.0 | 21.0 | 0.00 | 0.00 | 0.00 | 73 | 1004.9 |
| 20260505195051 | 65 | 43 | 2.0 | 17.0 | 0.00 | 0.00 | 0.00 | 72 | 1004.9 |
| 20260505194557 | 66 | 360 | 5.0 | 18.0 | 0.00 | 0.00 | 0.00 | 72 | 1004.9 |
| 20260505194052 | 66 | 44 | 6.0 | 18.0 | 0.00 | 0.00 | 0.00 | 71 | 1004.8 |
| 20260505193551 | 66 | 38 | 4.0 | 11.0 | 0.00 | 0.00 | 0.00 | 71 | 1004.8 |
| 20260505193105 | 67 | 9 | 4.0 | 18.0 | 0.00 | 0.00 | 0.00 | 70 | 1004.8 |
| 20260505192552 | 67 | 36 | 8.0 | 23.0 | 0.00 | 0.00 | 0.00 | 70 | 1004.7 |
| 20260505192050 | 67 | 9 | 11.0 | 23.0 | 0.00 | 0.00 | 0.00 | 69 | 1004.8 |
| 20260505191555 | 68 | 10 | 2.0 | 16.0 | 0.00 | 0.00 | 0.00 | 68 | 1004.8 |
| 20260505191049 | 68 | 343 | 7.0 | 20.0 | 0.00 | 0.00 | 0.00 | 68 | 1004.8 |
| 20260505190549 | 68 | 22 | 8.0 | 20.0 | 0.00 | 0.00 | 0.00 | 67 | 1004.7 |
| 20260505190050 | 69 | 360 | 8.0 | 19.0 | 0.00 | 0.00 | 0.00 | 65 | 1004.6 |
| 20260505185550 | 69 | 38 | 4.0 | 21.0 | 0.00 | 0.00 | 0.00 | 64 | 1004.6 |
| 20260505185049 | 69 | 5 | 10.0 | 21.0 | 0.00 | 0.00 | 0.00 | 62 | 1004.5 |
| 20260505184555 | 70 | 360 | 7.0 | 21.0 | 0.00 | 0.00 | 0.00 | 60 | 1004.4 |
| 20260505184049 | 70 | 348 | 7.0 | 21.0 | 0.00 | 0.00 | 0.00 | 56 | 1004.3 |
| 20260505183647 | 70 | 9 | 4.0 | 16.0 | 0.00 | 0.00 | 0.00 | 51 | 1004.3 |
| 20260505180046 | 74 | 246 | 0.0 | 0.0 | 0.00 | 0.00 | 0.00 | 39 | 1004.0 |
| 20260505175546 | 74 | 246 | 0.0 | 0.0 | 0.00 | 0.00 | 0.00 | 38 | 1004.0 |
| 20260505175045 | 75 | 246 | 0.0 | 0.0 | 0.00 | 0.00 | 0.00 | 36 | 1004.0 |
| 20260505174545 | 75 | 246 | 0.0 | 0.0 | 0.00 | 0.00 | 0.00 | 36 | 1004.0 |
| 20260505174049 | 76 | 246 | 0.0 | 0.0 | 0.00 | 0.00 | 0.00 | 35 | 1004.0 |
| 20260505173545 | 76 | 246 | 0.0 | 0.0 | 0.00 | 0.00 | 0.00 | 34 | 1003.9 |
| 20260505173046 | 77 | 246 | 0.0 | 0.0 | 0.00 | 0.00 | 0.00 | 33 | 1003.9 |
| 20260505172544 | 77 | 246 | 0.0 | 7.0 | 0.00 | 0.00 | 0.00 | 32 | 1004.0 |
| 20260505172044 | 77 | 261 | 0.0 | 12.0 | 0.00 | 0.00 | 0.00 | 32 | 1004.0 |
| 20260505171548 | 77 | 246 | 2.0 | 12.0 | 0.00 | 0.00 | 0.00 | 31 | 1004.0 |
| 20260505171045 | 78 | 203 | 3.0 | 8.0 | 0.00 | 0.00 | 0.00 | 31 | 1004.1 |
| 20260505170543 | 78 | 250 | 2.0 | 17.0 | 0.00 | 0.00 | 0.00 | 31 | 1004.0 |
| 20260505170043 | 78 | 265 | 7.0 | 17.0 | 0.00 | 0.00 | 0.00 | 30 | 1004.1 |
| 20260505165542 | 78 | 235 | 6.0 | 23.0 | 0.00 | 0.00 | 0.00 | 30 | 1004.1 |
| 20260505165042 | 79 | 247 | 5.0 | 23.0 | 0.00 | 0.00 | 0.00 | 29 | 1004.1 |
| 20260505164544 | 79 | 254 | 8.0 | 20.0 | 0.00 | 0.00 | 0.00 | 28 | 1004.1 |
| 20260505164041 | 80 | 260 | 2.0 | 23.0 | 0.00 | 0.00 | 0.00 | 28 | 1004.1 |
| 20260505163542 | 80 | 247 | 8.0 | 24.0 | 0.00 | 0.00 | 0.00 | 27 | 1004.1 |
| 20260505163043 | 80 | 245 | 7.0 | 28.0 | 0.00 | 0.00 | 0.00 | 27 | 1004.1 |
| 20260505162541 | 80 | 257 | 13.0 | 28.0 | 0.00 | 0.00 | 0.00 | 26 | 1004.1 |
| 20260505162041 | 80 | 211 | 14.0 | 23.0 | 0.00 | 0.00 | 0.00 | 25 | 1004.1 |
| 20260505161544 | 81 | 216 | 9.0 | 25.0 | 0.00 | 0.00 | 0.00 | 24 | 1004.1 |
| 20260505161040 | 81 | 200 | 10.0 | 25.0 | 0.00 | 0.00 | 0.00 | 22 | 1004.1 |
| 20260505160539 | 81 | 217 | 8.0 | 29.0 | 0.00 | 0.00 | 0.00 | 22 | 1004.1 |
| 20260505160140 | 81 | 202 | 14.0 | 29.0 | 0.00 | 0.00 | 0.00 | 21 | 1004.1 |
| 20260505153045 | 81 | 237 | 18.0 | 28.0 | 0.00 | 0.00 | 0.00 | 21 | 1004.2 |
| 20260505152537 | 81 | 198 | 12.0 | 22.0 | 0.00 | 0.00 | 0.00 | 23 | 1004.2 |
| 20260505152037 | 81 | 173 | 9.0 | 28.0 | 0.00 | 0.00 | 0.00 | 24 | 1004.2 |
| 20260505151538 | 81 | 250 | 11.0 | 28.0 | 0.00 | 0.00 | 0.00 | 24 | 1004.2 |
| 20260505151039 | 81 | 171 | 11.0 | 26.0 | 0.00 | 0.00 | 0.00 | 24 | 1004.2 |
| 20260505150535 | 82 | 171 | 11.0 | 26.0 | 0.00 | 0.00 | 0.00 | 23 | 1004.2 |